createdAt,value
2023-01-25T00:02:24.292Z,103619.09
2023-01-25T00:04:54.788Z,103611.34
2023-01-25T00:07:23.942Z,103613.03
2023-01-25T00:09:53.071Z,103604.44
2023-01-25T00:12:22.161Z,103611.31
2023-01-25T00:14:51.237Z,103602.72
2023-01-25T00:17:20.302Z,103601.00
2023-01-25T00:19:49.301Z,103596.69
2023-01-25T00:22:19.709Z,103594.97
2023-01-25T00:24:49.007Z,103593.22
2023-01-25T00:27:18.021Z,103600.16
2023-01-25T00:30:23.491Z,103591.53
2023-01-25T00:33:39.970Z,103600.97
2023-01-25T00:36:29.093Z,103607.81
2023-01-25T00:38:59.886Z,103602.72
2023-01-25T00:41:29.070Z,103595.81
2023-01-25T00:43:58.335Z,103595.78
2023-01-25T00:46:27.457Z,103590.63
2023-01-25T00:48:57.607Z,103581.13
2023-01-25T00:51:27.003Z,103571.75
2023-01-25T00:53:56.156Z,103568.28
2023-01-25T00:56:26.844Z,103569.97
2023-01-25T00:58:55.858Z,103571.66
2023-01-25T01:01:24.956Z,103570.81
2023-01-25T01:03:54.088Z,103562.22
2023-01-25T01:06:23.094Z,103558.81
2023-01-25T01:08:55.162Z,103568.25
2023-01-25T01:11:25.913Z,103571.69
2023-01-25T01:13:57.469Z,103558.81
2023-01-25T01:16:26.904Z,103563.94
2023-01-25T01:18:55.954Z,103564.78
2023-01-25T01:21:25.092Z,103568.22
2023-01-25T01:23:55.665Z,103569.13
2023-01-25T01:26:26.463Z,103558.78
2023-01-25T01:28:55.713Z,103556.22
2023-01-25T01:31:26.268Z,103549.31
2023-01-25T01:34:13.068Z,103550.19
2023-01-25T01:36:42.573Z,103545.03
2023-01-25T01:39:11.911Z,103554.44
2023-01-25T01:41:42.463Z,103544.97
2023-01-25T01:44:18.616Z,103551.88
2023-01-25T01:46:55.470Z,103544.13
2023-01-25T01:49:32.572Z,103532.88
2023-01-25T01:52:14.181Z,103541.47
2023-01-25T01:54:48.396Z,103537.13
2023-01-25T01:57:23.076Z,103543.22
2023-01-25T01:59:58.002Z,103538.91
2023-01-25T02:02:28.261Z,103540.66
2023-01-25T02:05:02.133Z,103538.00
2023-01-25T02:07:35.353Z,103548.25
2023-01-25T02:10:06.173Z,103538.84
2023-01-25T02:12:37.881Z,103533.69
2023-01-25T02:15:11.512Z,103529.34
2023-01-25T02:17:42.622Z,103529.41
2023-01-25T02:20:21.587Z,103528.44
2023-01-25T02:22:57.603Z,103527.59
2023-01-25T02:25:28.581Z,103529.34
2023-01-25T02:28:02.147Z,103534.44
2023-01-25T02:30:31.987Z,103523.28
2023-01-25T02:33:01.128Z,103523.25
2023-01-25T02:35:41.267Z,103517.28
2023-01-25T02:38:13.121Z,103520.69
2023-01-25T02:40:47.641Z,103511.25
2023-01-25T02:43:18.030Z,103510.44
2023-01-25T02:45:50.380Z,103503.59
2023-01-25T02:48:19.421Z,103502.75
2023-01-25T02:50:48.478Z,103493.28
2023-01-25T02:53:17.541Z,103499.19
2023-01-25T02:55:47.972Z,103504.31
2023-01-25T02:58:16.989Z,103491.47
2023-01-25T03:00:46.093Z,103500.91
2023-01-25T03:03:15.117Z,103493.19
2023-01-25T03:05:45.663Z,103502.59
2023-01-25T03:08:14.696Z,103497.44
2023-01-25T03:10:43.895Z,103501.72
2023-01-25T03:13:14.415Z,103491.41
2023-01-25T03:15:43.448Z,103494.84
2023-01-25T03:18:12.709Z,103489.69
2023-01-25T03:20:41.802Z,103478.53
2023-01-25T03:23:10.878Z,103476.75
2023-01-25T03:25:40.610Z,103479.38
2023-01-25T03:28:16.023Z,103464.75
2023-01-25T03:30:45.143Z,103465.63
2023-01-25T03:33:14.168Z,103466.47
2023-01-25T03:35:43.237Z,103463.03
2023-01-25T03:38:12.554Z,103464.75
2023-01-25T03:40:41.565Z,103467.31
2023-01-25T03:43:10.597Z,103451.91
2023-01-25T03:45:41.259Z,103451.00
2023-01-25T03:48:10.335Z,103451.88
2023-01-25T03:50:40.692Z,103444.19
2023-01-25T03:53:20.200Z,103437.34
2023-01-25T03:55:50.391Z,103445.06
2023-01-25T03:58:20.087Z,103449.38
2023-01-25T04:00:50.605Z,103445.94
2023-01-25T04:03:21.490Z,103440.75
2023-01-25T04:05:50.958Z,103436.44
2023-01-25T04:08:20.878Z,103440.72
2023-01-25T04:10:54.244Z,103435.59
2023-01-25T04:13:25.105Z,103433.88
2023-01-25T04:15:55.989Z,103429.56
2023-01-25T04:18:44.951Z,103433.81
2023-01-25T04:21:14.047Z,103425.28
2023-01-25T04:23:43.191Z,103426.09
2023-01-25T04:26:12.541Z,103422.59
2023-01-25T04:28:42.386Z,103427.72
2023-01-25T04:31:12.919Z,103430.28
2023-01-25T04:33:43.329Z,103426.03
2023-01-25T04:36:12.544Z,103418.22
2023-01-25T04:38:43.169Z,103423.38
2023-01-25T04:41:13.051Z,103419.06
2023-01-25T04:43:42.360Z,103418.19
2023-01-25T04:46:14.162Z,103416.44
2023-01-25T04:48:43.301Z,103406.16
2023-01-25T04:51:14.279Z,103405.31
2023-01-25T04:53:44.459Z,103407.91
2023-01-25T04:56:14.010Z,103396.72
2023-01-25T04:58:49.014Z,103403.63
2023-01-25T05:01:19.519Z,103386.44
2023-01-25T05:03:48.674Z,103390.75
2023-01-25T05:06:26.779Z,103385.56
2023-01-25T05:08:55.820Z,103389.03
2023-01-25T05:11:24.950Z,103390.75
2023-01-25T05:14:12.868Z,103383.91
2023-01-25T05:16:43.340Z,103380.41
2023-01-25T05:19:13.073Z,103381.28
2023-01-25T05:21:59.543Z,103369.31
2023-01-25T05:24:35.832Z,103371.81
2023-01-25T05:27:08.924Z,103374.41
2023-01-25T05:29:58.707Z,103365.88
2023-01-25T05:32:42.092Z,103378.75
2023-01-25T05:35:11.736Z,103366.72
2023-01-25T05:37:41.532Z,103363.31
2023-01-25T05:40:17.427Z,103363.34
2023-01-25T05:42:53.787Z,103359.09
2023-01-25T05:45:26.629Z,103356.53
2023-01-25T05:48:00.093Z,103355.66
2023-01-25T05:50:29.394Z,103356.47
2023-01-25T05:53:11.096Z,103355.59
2023-01-25T05:55:41.565Z,103354.69
2023-01-25T05:58:14.991Z,103351.28
2023-01-25T06:00:44.341Z,103347.00
2023-01-25T06:03:21.165Z,103352.94
2023-01-25T06:05:55.833Z,103352.06
2023-01-25T06:08:25.339Z,103345.22
2023-01-25T06:10:56.508Z,103349.56
2023-01-25T06:13:26.031Z,103349.47
2023-01-25T06:15:57.260Z,103348.66
2023-01-25T06:18:45.901Z,103347.78
2023-01-25T06:21:17.769Z,103350.41
2023-01-25T06:23:46.952Z,103352.88
2023-01-25T06:26:17.538Z,103352.97
2023-01-25T06:28:46.553Z,103352.09
2023-01-25T06:31:17.810Z,103351.28
2023-01-25T06:33:52.351Z,103350.41
2023-01-25T06:36:24.044Z,103352.16
2023-01-25T06:38:53.827Z,103353.03
2023-01-25T06:41:23.175Z,103362.34
2023-01-25T06:43:52.997Z,103357.22
2023-01-25T06:46:22.322Z,103355.56
2023-01-25T06:48:52.715Z,103353.94
2023-01-25T06:51:21.763Z,103358.19
2023-01-25T06:53:50.794Z,103359.06
2023-01-25T06:56:23.082Z,103349.59
2023-01-25T06:58:52.240Z,103352.13
2023-01-25T07:01:22.823Z,103355.56
2023-01-25T07:03:54.756Z,103348.75
2023-01-25T07:06:25.028Z,103354.72
2023-01-25T07:08:54.624Z,103334.94
2023-01-25T07:11:23.691Z,103340.00
2023-01-25T07:13:52.766Z,103337.47
2023-01-25T07:16:22.195Z,103340.94
2023-01-25T07:18:52.609Z,103328.94
2023-01-25T07:21:23.038Z,103322.88
2023-01-25T07:23:53.366Z,103333.22
2023-01-25T07:26:24.371Z,103328.91
2023-01-25T07:28:54.337Z,103333.19
2023-01-25T07:31:23.472Z,103321.19
2023-01-25T07:33:55.580Z,103325.47
2023-01-25T07:36:25.459Z,103316.03
2023-01-25T07:38:55.707Z,103309.31
2023-01-25T07:41:25.916Z,103310.13
2023-01-25T07:43:55.289Z,103311.84
2023-01-25T07:46:36.136Z,103306.66
2023-01-25T07:49:06.803Z,103306.72
2023-01-25T07:51:35.846Z,103305.88
2023-01-25T07:54:06.091Z,103305.03
2023-01-25T07:56:37.709Z,103299.03
2023-01-25T07:59:08.861Z,103297.22
2023-01-25T08:01:38.927Z,103295.47
2023-01-25T08:04:09.682Z,103287.75
2023-01-25T08:06:39.770Z,103283.47
2023-01-25T08:09:12.101Z,103287.03
2023-01-25T08:11:42.491Z,103281.00
2023-01-25T08:14:11.661Z,103284.41
2023-01-25T08:16:41.133Z,103286.09
2023-01-25T08:19:12.658Z,103281.00
2023-01-25T08:21:41.891Z,103273.31
2023-01-25T08:24:11.324Z,103265.59
2023-01-25T08:26:40.404Z,103269.88
2023-01-25T08:29:11.164Z,103267.34
2023-01-25T08:31:43.801Z,103270.81
2023-01-25T08:34:14.976Z,103265.66
2023-01-25T08:36:44.172Z,103267.34
2023-01-25T08:39:14.089Z,103249.28
2023-01-25T08:41:45.530Z,103245.81
2023-01-25T08:44:14.727Z,103243.19
2023-01-25T08:46:44.932Z,103236.38
2023-01-25T08:49:15.406Z,103241.56
2023-01-25T08:51:45.176Z,103236.38
2023-01-25T08:54:14.697Z,103230.31
2023-01-25T08:56:44.370Z,103225.19
2023-01-25T08:59:14.437Z,103224.34
2023-01-25T09:01:43.711Z,103220.06
2023-01-25T09:04:14.204Z,103216.66
2023-01-25T09:06:43.268Z,103215.81
2023-01-25T09:09:13.446Z,103220.91
2023-01-25T09:11:42.538Z,103221.78
2023-01-25T09:14:11.627Z,103220.00
2023-01-25T09:16:40.714Z,103214.09
2023-01-25T09:19:13.399Z,103212.31
2023-01-25T09:21:43.846Z,103207.22
2023-01-25T09:24:12.911Z,103208.94
2023-01-25T09:26:50.081Z,103201.25
2023-01-25T09:29:24.978Z,103208.09
2023-01-25T09:31:54.294Z,103203.75
2023-01-25T09:34:31.352Z,103203.78
2023-01-25T09:37:01.749Z,103193.50
2023-01-25T09:39:30.811Z,103200.34
2023-01-25T09:42:32.624Z,103194.34
2023-01-25T09:45:17.744Z,103185.75
2023-01-25T09:47:55.341Z,103186.59
2023-01-25T09:50:34.395Z,103183.16
2023-01-25T09:53:25.228Z,103181.41
2023-01-25T09:55:58.709Z,103179.72
2023-01-25T09:58:35.498Z,103171.09
2023-01-25T10:01:37.654Z,103177.97
2023-01-25T10:04:14.105Z,103171.97
2023-01-25T10:06:55.064Z,103178.84
2023-01-25T10:09:43.707Z,103178.00
2023-01-25T10:12:20.253Z,103177.19
2023-01-25T10:14:50.167Z,103181.41
2023-01-25T10:17:28.348Z,103175.44
2023-01-25T10:20:21.573Z,103163.47
2023-01-25T10:22:57.443Z,103149.72
2023-01-25T10:25:37.011Z,103141.97
2023-01-25T10:28:19.816Z,103139.41
2023-01-25T10:30:54.735Z,103138.53
2023-01-25T10:33:24.031Z,103137.69
2023-01-25T10:35:53.137Z,103129.13
2023-01-25T10:38:28.932Z,103123.16
2023-01-25T10:41:03.503Z,103121.44
2023-01-25T10:43:35.001Z,103123.13
2023-01-25T10:46:04.508Z,103115.41
2023-01-25T10:48:37.478Z,103119.69
2023-01-25T10:51:06.882Z,103122.28
2023-01-25T10:53:39.542Z,103114.53
2023-01-25T10:56:24.935Z,103114.53
2023-01-25T10:59:06.078Z,103097.38
2023-01-25T11:01:36.843Z,103097.41
2023-01-25T11:04:25.404Z,103087.94
2023-01-25T11:06:54.456Z,103086.22
2023-01-25T11:09:38.496Z,103075.91
2023-01-25T11:12:19.928Z,103066.50
2023-01-25T11:14:53.049Z,103061.34
2023-01-25T11:17:26.962Z,103057.06
2023-01-25T11:20:17.314Z,103044.19
2023-01-25T11:22:54.174Z,103039.00
2023-01-25T11:25:32.087Z,103029.59
2023-01-25T11:28:20.205Z,103027.00
2023-01-25T11:30:50.899Z,103028.72
2023-01-25T11:33:22.984Z,103022.75
2023-01-25T11:36:21.605Z,103025.31
2023-01-25T11:39:07.244Z,103010.72
2023-01-25T11:41:47.871Z,103002.97
2023-01-25T11:44:44.154Z,102994.41
2023-01-25T11:47:23.527Z,102992.69
2023-01-25T11:50:01.953Z,102987.53
2023-01-25T11:52:44.147Z,102981.50
2023-01-25T11:55:26.308Z,102983.28
2023-01-25T11:58:17.991Z,102969.53
2023-01-25T12:01:02.258Z,102969.47
2023-01-25T12:04:04.499Z,102951.47
2023-01-25T12:06:43.667Z,102949.72
2023-01-25T12:09:30.839Z,102942.00
2023-01-25T12:12:17.589Z,102934.25
2023-01-25T12:15:02.792Z,102935.16
2023-01-25T12:17:57.111Z,102920.53
2023-01-25T12:20:42.103Z,102913.66
2023-01-25T12:23:31.753Z,102909.44
2023-01-25T12:26:13.809Z,102898.16
2023-01-25T12:28:47.236Z,102899.97
2023-01-25T12:31:21.636Z,102895.56
2023-01-25T12:33:58.838Z,102887.00
2023-01-25T12:36:33.311Z,102883.66
2023-01-25T12:39:06.364Z,102875.88
2023-01-25T12:41:44.621Z,102873.38
2023-01-25T12:44:20.967Z,102867.31
2023-01-25T12:46:58.863Z,102863.88
2023-01-25T12:49:35.823Z,102857.88
2023-01-25T12:52:12.855Z,102861.28
2023-01-25T12:54:44.790Z,102842.41
2023-01-25T12:57:22.762Z,102839.78
2023-01-25T13:00:04.495Z,102839.81
2023-01-25T13:03:03.663Z,102840.63
2023-01-25T13:05:40.530Z,102830.41
2023-01-25T13:08:31.165Z,102826.16
2023-01-25T13:11:12.210Z,102822.69
2023-01-25T13:13:41.650Z,102830.44
2023-01-25T13:16:37.565Z,102823.63
2023-01-25T13:19:19.320Z,102813.34
2023-01-25T13:21:52.417Z,102807.41
2023-01-25T13:24:24.523Z,102802.22
2023-01-25T13:27:06.535Z,102790.97
2023-01-25T13:30:00.457Z,102797.81
2023-01-25T13:32:56.656Z,102800.50
2023-01-25T13:35:41.889Z,102792.66
2023-01-25T13:38:33.085Z,102790.13
2023-01-25T13:41:11.815Z,102787.72
2023-01-25T13:43:42.312Z,102781.69
2023-01-25T13:46:15.064Z,102779.03
2023-01-25T13:49:08.093Z,102779.94
2023-01-25T13:51:41.946Z,102774.81
2023-01-25T13:54:18.153Z,102769.66
2023-01-25T13:56:47.289Z,102760.25
2023-01-25T13:59:29.257Z,102764.50
2023-01-25T14:02:00.196Z,102758.53
2023-01-25T14:04:30.441Z,102761.09
2023-01-25T14:07:09.705Z,102768.75
2023-01-25T14:09:44.268Z,102762.78
2023-01-25T14:12:23.369Z,102762.75
2023-01-25T14:14:52.471Z,102758.47
2023-01-25T14:17:23.341Z,102762.72
2023-01-25T14:19:55.949Z,102766.13
2023-01-25T14:22:27.393Z,102755.88
2023-01-25T14:25:08.417Z,102750.75
2023-01-25T14:27:42.943Z,102734.47
2023-01-25T14:30:19.750Z,102731.88
2023-01-25T14:32:49.923Z,102742.16
2023-01-25T14:35:53.795Z,102745.59
2023-01-25T14:38:30.169Z,102746.53
2023-01-25T14:41:07.506Z,102737.09
2023-01-25T14:43:38.553Z,102730.22
2023-01-25T14:46:21.883Z,102731.06
2023-01-25T14:48:52.670Z,102714.81
2023-01-25T14:51:28.809Z,102717.34
2023-01-25T14:54:01.219Z,102713.94
2023-01-25T14:56:42.340Z,102721.66
2023-01-25T14:59:28.185Z,102724.25
2023-01-25T15:02:01.330Z,102713.91
2023-01-25T15:04:30.651Z,102721.63
2023-01-25T15:07:08.989Z,102726.69
2023-01-25T15:10:04.786Z,102722.47
2023-01-25T15:12:37.579Z,102724.16
2023-01-25T15:15:21.606Z,102712.16
2023-01-25T15:17:51.838Z,102719.88
2023-01-25T15:20:39.944Z,102710.44
2023-01-25T15:23:25.041Z,102716.47
2023-01-25T15:25:56.359Z,102718.28
2023-01-25T15:28:34.244Z,102713.19
2023-01-25T15:31:04.774Z,102705.44
2023-01-25T15:33:35.476Z,102698.59
2023-01-25T15:36:04.575Z,102695.19
2023-01-25T15:38:33.595Z,102692.63
2023-01-25T15:41:02.717Z,102696.09
2023-01-25T15:43:33.084Z,102684.03
2023-01-25T15:46:02.693Z,102679.75
2023-01-25T15:48:37.657Z,102667.75
2023-01-25T15:51:07.010Z,102662.66
2023-01-25T15:53:36.267Z,102660.06
2023-01-25T15:56:07.765Z,102660.88
2023-01-25T15:58:40.583Z,102660.06
2023-01-25T16:01:09.957Z,102666.06
2023-01-25T16:03:41.347Z,102664.34
2023-01-25T16:06:32.709Z,102664.34
2023-01-25T16:09:04.123Z,102662.63
2023-01-25T16:11:33.135Z,102652.34
2023-01-25T16:14:03.567Z,102660.88
2023-01-25T16:16:33.341Z,102650.66
2023-01-25T16:19:02.380Z,102648.97
2023-01-25T16:21:31.520Z,102644.69
2023-01-25T16:24:00.572Z,102643.81
2023-01-25T16:26:30.381Z,102642.94
2023-01-25T16:28:59.373Z,102653.22
2023-01-25T16:31:33.168Z,102648.97
2023-01-25T16:34:02.719Z,102649.78
2023-01-25T16:36:34.015Z,102642.91
2023-01-25T16:39:10.151Z,102642.09
2023-01-25T16:41:39.442Z,102632.63
2023-01-25T16:44:08.625Z,102640.31
2023-01-25T16:46:39.039Z,102637.78
2023-01-25T16:49:09.884Z,102631.84
2023-01-25T16:51:40.201Z,102632.66
2023-01-25T16:54:13.462Z,102630.03
2023-01-25T16:56:42.947Z,102624.09
2023-01-25T16:59:12.842Z,102629.22
2023-01-25T17:01:43.545Z,102632.59
2023-01-25T17:04:13.402Z,102635.22
2023-01-25T17:06:44.553Z,102631.66
2023-01-25T17:09:25.293Z,102629.13
2023-01-25T17:11:55.298Z,102624.75
2023-01-25T17:14:24.828Z,102611.97
2023-01-25T17:16:55.276Z,102622.28
2023-01-25T17:19:25.020Z,102618.88
2023-01-25T17:21:54.260Z,102619.00
2023-01-25T17:24:23.455Z,102614.69
2023-01-25T17:26:55.858Z,102621.56
2023-01-25T17:29:25.347Z,102616.47
2023-01-25T17:31:56.224Z,102612.97
2023-01-25T17:34:25.809Z,102617.31
2023-01-25T17:36:55.465Z,102601.00
2023-01-25T17:39:24.825Z,102594.13
2023-01-25T17:41:54.552Z,102586.47
2023-01-25T17:44:24.896Z,102595.06
2023-01-25T17:46:56.145Z,102590.75
2023-01-25T17:49:26.378Z,102588.97
2023-01-25T17:51:55.729Z,102580.28
2023-01-25T17:54:24.958Z,102573.56
2023-01-25T17:56:55.504Z,102567.53
2023-01-25T17:59:25.015Z,102555.56
2023-01-25T18:01:54.452Z,102565.81
2023-01-25T18:04:25.561Z,102559.03
2023-01-25T18:06:55.075Z,102552.19
2023-01-25T18:09:25.083Z,102550.56
2023-01-25T18:11:54.411Z,102544.38
2023-01-25T18:14:24.016Z,102548.81
2023-01-25T18:16:53.291Z,102548.84
2023-01-25T18:19:23.829Z,102549.72
2023-01-25T18:21:53.666Z,102536.84
2023-01-25T18:24:32.705Z,102541.94
2023-01-25T18:27:05.986Z,102536.84
2023-01-25T18:29:48.564Z,102526.63
2023-01-25T18:32:18.538Z,102518.91
2023-01-25T18:34:49.330Z,102509.41
2023-01-25T18:37:20.319Z,102511.19
2023-01-25T18:39:50.852Z,102518.00
2023-01-25T18:42:20.413Z,102517.13
2023-01-25T18:44:49.466Z,102515.38
2023-01-25T18:47:20.166Z,102512.78
2023-01-25T18:49:52.159Z,102506.00
2023-01-25T18:52:23.473Z,102499.88
2023-01-25T18:54:52.818Z,102504.28
2023-01-25T18:57:21.977Z,102505.09
2023-01-25T18:59:51.405Z,102492.28
2023-01-25T19:02:22.840Z,102489.63
2023-01-25T19:04:53.638Z,102493.03
2023-01-25T19:07:22.691Z,102485.34
2023-01-25T19:09:51.795Z,102487.13
2023-01-25T19:12:20.903Z,102493.94
2023-01-25T19:14:49.983Z,102499.16
2023-01-25T19:17:19.038Z,102494.97
2023-01-25T19:19:48.046Z,102479.56
2023-01-25T19:22:18.410Z,102471.06
2023-01-25T19:24:47.827Z,102471.91
2023-01-25T19:27:16.925Z,102472.75
2023-01-25T19:29:45.938Z,102478.81
2023-01-25T19:32:14.975Z,102475.34
2023-01-25T19:34:44.056Z,102474.47
2023-01-25T19:37:13.165Z,102467.63
2023-01-25T19:39:43.714Z,102460.75
2023-01-25T19:42:12.781Z,102457.38
2023-01-25T19:44:41.858Z,102447.94
2023-01-25T19:47:10.923Z,102440.22
2023-01-25T19:49:39.979Z,102442.84
2023-01-25T19:52:10.587Z,102433.47
2023-01-25T19:54:39.611Z,102427.50
2023-01-25T19:57:10.015Z,102430.81
2023-01-25T19:59:39.569Z,102427.44
2023-01-25T20:02:13.215Z,102429.09
2023-01-25T20:04:43.616Z,102431.69
2023-01-25T20:07:13.457Z,102435.13
2023-01-25T20:09:44.138Z,102427.41
2023-01-25T20:12:14.791Z,102431.69
2023-01-25T20:14:44.292Z,102416.25
2023-01-25T20:17:14.178Z,102410.28
2023-01-25T20:19:44.229Z,102405.91
2023-01-25T20:22:13.768Z,102405.06
2023-01-25T20:24:42.868Z,102399.94
2023-01-25T20:27:11.938Z,102395.66
2023-01-25T20:29:45.124Z,102399.00
2023-01-25T20:32:30.615Z,102391.25
2023-01-25T20:35:03.481Z,102398.97
2023-01-25T20:37:32.941Z,102403.25
2023-01-25T20:40:01.963Z,102402.41
2023-01-25T20:42:31.243Z,102398.13
2023-01-25T20:45:01.932Z,102401.41
2023-01-25T20:47:31.240Z,102398.94
2023-01-25T20:50:00.385Z,102406.63
2023-01-25T20:52:29.629Z,102402.28
2023-01-25T20:54:58.824Z,102397.16
2023-01-25T20:57:27.899Z,102394.63
2023-01-25T20:59:56.981Z,102395.41
2023-01-25T21:02:27.363Z,102390.22
2023-01-25T21:04:56.376Z,102386.81
2023-01-25T21:07:25.570Z,102385.09
2023-01-25T21:09:54.666Z,102374.84
2023-01-25T21:12:23.702Z,102374.75
2023-01-25T21:14:52.743Z,102376.34
2023-01-25T21:17:26.328Z,102382.47
2023-01-25T21:19:58.511Z,102383.31
2023-01-25T21:22:29.642Z,102382.44
2023-01-25T21:24:59.018Z,102386.72
2023-01-25T21:27:29.599Z,102374.78
2023-01-25T21:29:58.660Z,102377.28
2023-01-25T21:32:29.926Z,102373.81
2023-01-25T21:34:58.945Z,102364.44
2023-01-25T21:37:29.562Z,102365.25
2023-01-25T21:39:58.605Z,102363.53
2023-01-25T21:42:27.629Z,102357.56
2023-01-25T21:45:25.773Z,102345.50
2023-01-25T21:48:00.487Z,102343.00
2023-01-25T21:50:47.413Z,102336.97
2023-01-25T21:53:16.464Z,102338.75
2023-01-25T21:55:45.497Z,102330.97
2023-01-25T21:58:17.114Z,102325.03
2023-01-25T22:00:46.179Z,102334.47
2023-01-25T22:03:16.534Z,102331.91
2023-01-25T22:05:45.605Z,102342.19
2023-01-25T22:08:14.768Z,102336.16
2023-01-25T22:10:43.872Z,102332.75
2023-01-25T22:13:13.241Z,102329.31
2023-01-25T22:15:42.296Z,102313.94
2023-01-25T22:18:11.313Z,102324.22
2023-01-25T22:20:41.706Z,102319.91
2023-01-25T22:23:10.746Z,102321.50
2023-01-25T22:25:39.757Z,102326.72
2023-01-25T22:28:15.344Z,102321.63
2023-01-25T22:30:44.497Z,102317.41
2023-01-25T22:33:13.920Z,102314.81
2023-01-25T22:35:44.287Z,102303.63
2023-01-25T22:38:13.404Z,102318.16
2023-01-25T22:40:42.744Z,102320.72
2023-01-25T22:43:11.815Z,102319.78
2023-01-25T22:45:40.859Z,102315.47
2023-01-25T22:48:09.864Z,102323.28
2023-01-25T22:50:41.036Z,102317.25
2023-01-25T22:53:11.503Z,102318.09
2023-01-25T22:55:40.695Z,102317.25
2023-01-25T22:58:10.030Z,102323.16
2023-01-25T23:00:39.438Z,102315.50
2023-01-25T23:03:08.525Z,102309.53
2023-01-25T23:05:37.612Z,102308.69
2023-01-25T23:08:06.697Z,102309.50
2023-01-25T23:10:37.085Z,102306.06
2023-01-25T23:13:06.089Z,102300.00
2023-01-25T23:15:35.197Z,102294.84
2023-01-25T23:18:36.441Z,102287.97
2023-01-25T23:21:06.227Z,102286.22
2023-01-25T23:23:35.319Z,102287.09
2023-01-25T23:26:05.947Z,102281.91
2023-01-25T23:28:34.977Z,102278.47
2023-01-25T23:31:18.039Z,102282.78
2023-01-25T23:33:48.303Z,102275.09
2023-01-25T23:36:19.261Z,102273.38
2023-01-25T23:38:48.546Z,102275.97
2023-01-25T23:41:21.041Z,102260.53
2023-01-25T23:43:50.289Z,102262.28
2023-01-25T23:46:20.085Z,102255.31
2023-01-25T23:48:49.314Z,102249.31
2023-01-25T23:51:19.517Z,102256.16
2023-01-25T23:53:49.072Z,102253.59
2023-01-25T23:56:23.036Z,102241.66
2023-01-25T23:58:52.208Z,102239.97
